sensor_id;sensor_type;location;lat;lon;timestamp;P1;durP1;ratioP1;P2;durP2;ratioP2
75971;SDS011;64651;47.540;19.088;2023-10-31T00:00:16;14.97;;;8.30;;
75971;SDS011;64651;47.540;19.088;2023-10-31T00:05:19;16.85;;;8.45;;
75971;SDS011;64651;47.540;19.088;2023-10-31T00:10:22;18.77;;;9.18;;
75971;SDS011;64651;47.540;19.088;2023-10-31T00:15:25;16.37;;;8.93;;
75971;SDS011;64651;47.540;19.088;2023-10-31T00:20:27;15.27;;;8.27;;
75971;SDS011;64651;47.540;19.088;2023-10-31T00:25:29;16.33;;;8.70;;
75971;SDS011;64651;47.540;19.088;2023-10-31T00:30:31;17.17;;;8.40;;
75971;SDS011;64651;47.540;19.088;2023-10-31T00:35:33;19.25;;;9.73;;
75971;SDS011;64651;47.540;19.088;2023-10-31T00:40:35;18.48;;;9.25;;
75971;SDS011;64651;47.540;19.088;2023-10-31T00:45:38;19.30;;;9.32;;
75971;SDS011;64651;47.540;19.088;2023-10-31T00:50:40;19.73;;;9.13;;
75971;SDS011;64651;47.540;19.088;2023-10-31T00:55:42;17.77;;;9.93;;
75971;SDS011;64651;47.540;19.088;2023-10-31T01:00:45;20.65;;;9.80;;
75971;SDS011;64651;47.540;19.088;2023-10-31T01:05:47;18.77;;;9.27;;
75971;SDS011;64651;47.540;19.088;2023-10-31T01:10:50;18.35;;;9.40;;
75971;SDS011;64651;47.540;19.088;2023-10-31T01:15:52;19.47;;;9.93;;
75971;SDS011;64651;47.540;19.088;2023-10-31T01:20:54;20.37;;;9.88;;
75971;SDS011;64651;47.540;19.088;2023-10-31T01:25:56;19.08;;;9.70;;
75971;SDS011;64651;47.540;19.088;2023-10-31T01:30:58;20.92;;;10.70;;
75971;SDS011;64651;47.540;19.088;2023-10-31T01:36:01;21.83;;;10.27;;
75971;SDS011;64651;47.540;19.088;2023-10-31T01:41:03;20.33;;;11.37;;
75971;SDS011;64651;47.540;19.088;2023-10-31T01:46:05;19.92;;;10.63;;
75971;SDS011;64651;47.540;19.088;2023-10-31T01:51:08;21.62;;;10.82;;
75971;SDS011;64651;47.540;19.088;2023-10-31T01:56:12;23.02;;;11.12;;
75971;SDS011;64651;47.540;19.088;2023-10-31T02:01:15;19.52;;;9.88;;
75971;SDS011;64651;47.540;19.088;2023-10-31T02:06:18;17.57;;;9.47;;
75971;SDS011;64651;47.540;19.088;2023-10-31T02:11:20;18.35;;;9.25;;
75971;SDS011;64651;47.540;19.088;2023-10-31T02:16:22;18.37;;;9.50;;
75971;SDS011;64651;47.540;19.088;2023-10-31T02:21:25;20.08;;;9.77;;
75971;SDS011;64651;47.540;19.088;2023-10-31T02:26:34;22.65;;;9.75;;
75971;SDS011;64651;47.540;19.088;2023-10-31T02:31:37;18.13;;;9.77;;
75971;SDS011;64651;47.540;19.088;2023-10-31T02:36:39;19.87;;;10.32;;
75971;SDS011;64651;47.540;19.088;2023-10-31T02:41:41;19.08;;;9.85;;
75971;SDS011;64651;47.540;19.088;2023-10-31T02:46:43;16.20;;;9.82;;
75971;SDS011;64651;47.540;19.088;2023-10-31T02:51:46;22.25;;;10.68;;
75971;SDS011;64651;47.540;19.088;2023-10-31T02:56:48;25.47;;;10.20;;
75971;SDS011;64651;47.540;19.088;2023-10-31T03:01:50;17.85;;;9.90;;
75971;SDS011;64651;47.540;19.088;2023-10-31T03:06:52;21.50;;;10.68;;
75971;SDS011;64651;47.540;19.088;2023-10-31T03:11:54;18.58;;;10.32;;
75971;SDS011;64651;47.540;19.088;2023-10-31T03:16:56;19.55;;;10.13;;
75971;SDS011;64651;47.540;19.088;2023-10-31T03:21:59;19.70;;;10.20;;
75971;SDS011;64651;47.540;19.088;2023-10-31T03:27:01;19.62;;;10.20;;
75971;SDS011;64651;47.540;19.088;2023-10-31T03:32:03;21.37;;;11.60;;
75971;SDS011;64651;47.540;19.088;2023-10-31T03:37:07;18.45;;;10.20;;
75971;SDS011;64651;47.540;19.088;2023-10-31T03:42:09;19.25;;;10.65;;
75971;SDS011;64651;47.540;19.088;2023-10-31T03:47:11;20.70;;;10.70;;
75971;SDS011;64651;47.540;19.088;2023-10-31T03:52:13;21.83;;;11.30;;
75971;SDS011;64651;47.540;19.088;2023-10-31T03:57:16;18.65;;;11.55;;
75971;SDS011;64651;47.540;19.088;2023-10-31T04:02:18;22.92;;;11.95;;
75971;SDS011;64651;47.540;19.088;2023-10-31T04:07:20;22.10;;;11.70;;
75971;SDS011;64651;47.540;19.088;2023-10-31T04:12:22;20.30;;;12.30;;
75971;SDS011;64651;47.540;19.088;2023-10-31T04:17:24;22.58;;;11.65;;
75971;SDS011;64651;47.540;19.088;2023-10-31T04:22:27;22.85;;;12.27;;
75971;SDS011;64651;47.540;19.088;2023-10-31T04:27:29;21.60;;;12.25;;
75971;SDS011;64651;47.540;19.088;2023-10-31T04:32:31;21.98;;;12.85;;
75971;SDS011;64651;47.540;19.088;2023-10-31T04:37:33;20.73;;;11.80;;
75971;SDS011;64651;47.540;19.088;2023-10-31T04:42:38;20.62;;;12.75;;
75971;SDS011;64651;47.540;19.088;2023-10-31T04:47:41;23.38;;;12.50;;
75971;SDS011;64651;47.540;19.088;2023-10-31T04:52:44;21.02;;;11.88;;
75971;SDS011;64651;47.540;19.088;2023-10-31T04:57:46;23.20;;;11.98;;
75971;SDS011;64651;47.540;19.088;2023-10-31T05:02:48;21.37;;;12.67;;
75971;SDS011;64651;47.540;19.088;2023-10-31T05:07:50;21.25;;;12.02;;
75971;SDS011;64651;47.540;19.088;2023-10-31T05:12:52;27.67;;;15.70;;
75971;SDS011;64651;47.540;19.088;2023-10-31T05:17:55;23.08;;;11.85;;
75971;SDS011;64651;47.540;19.088;2023-10-31T05:22:58;22.75;;;12.68;;
75971;SDS011;64651;47.540;19.088;2023-10-31T05:28:00;24.90;;;13.33;;
75971;SDS011;64651;47.540;19.088;2023-10-31T05:33:02;21.15;;;13.10;;
75971;SDS011;64651;47.540;19.088;2023-10-31T05:38:05;24.42;;;14.13;;
75971;SDS011;64651;47.540;19.088;2023-10-31T05:43:07;22.60;;;13.60;;
75971;SDS011;64651;47.540;19.088;2023-10-31T05:48:09;25.25;;;14.02;;
75971;SDS011;64651;47.540;19.088;2023-10-31T05:53:11;23.93;;;15.20;;
75971;SDS011;64651;47.540;19.088;2023-10-31T05:58:14;25.08;;;14.38;;
75971;SDS011;64651;47.540;19.088;2023-10-31T06:03:20;23.92;;;14.00;;
75971;SDS011;64651;47.540;19.088;2023-10-31T06:08:22;22.87;;;13.95;;
75971;SDS011;64651;47.540;19.088;2023-10-31T06:13:26;23.80;;;14.32;;
75971;SDS011;64651;47.540;19.088;2023-10-31T06:18:28;23.27;;;13.70;;
75971;SDS011;64651;47.540;19.088;2023-10-31T06:23:31;23.67;;;12.82;;
75971;SDS011;64651;47.540;19.088;2023-10-31T06:28:34;21.40;;;12.45;;
75971;SDS011;64651;47.540;19.088;2023-10-31T06:33:44;22.15;;;13.35;;
75971;SDS011;64651;47.540;19.088;2023-10-31T06:38:46;21.00;;;12.88;;
75971;SDS011;64651;47.540;19.088;2023-10-31T06:43:48;23.33;;;12.67;;
75971;SDS011;64651;47.540;19.088;2023-10-31T06:48:50;21.00;;;12.82;;
75971;SDS011;64651;47.540;19.088;2023-10-31T06:53:53;22.20;;;12.93;;
75971;SDS011;64651;47.540;19.088;2023-10-31T06:58:55;22.00;;;13.00;;
75971;SDS011;64651;47.540;19.088;2023-10-31T07:03:57;17.80;;;11.63;;
75971;SDS011;64651;47.540;19.088;2023-10-31T07:09:00;19.10;;;8.80;;
75971;SDS011;64651;47.540;19.088;2023-10-31T07:14:06;40.97;;;10.82;;
75971;SDS011;64651;47.540;19.088;2023-10-31T07:19:09;16.67;;;9.20;;
75971;SDS011;64651;47.540;19.088;2023-10-31T07:24:12;17.08;;;9.80;;
75971;SDS011;64651;47.540;19.088;2023-10-31T07:29:14;16.90;;;9.40;;
75971;SDS011;64651;47.540;19.088;2023-10-31T07:34:16;16.70;;;10.93;;
75971;SDS011;64651;47.540;19.088;2023-10-31T07:39:18;21.17;;;11.12;;
75971;SDS011;64651;47.540;19.088;2023-10-31T07:44:22;20.58;;;11.50;;
75971;SDS011;64651;47.540;19.088;2023-10-31T07:49:24;21.55;;;11.35;;
75971;SDS011;64651;47.540;19.088;2023-10-31T07:54:27;18.35;;;11.02;;
75971;SDS011;64651;47.540;19.088;2023-10-31T07:59:32;17.53;;;9.73;;
75971;SDS011;64651;47.540;19.088;2023-10-31T08:04:35;17.73;;;10.25;;
75971;SDS011;64651;47.540;19.088;2023-10-31T08:09:37;18.02;;;9.60;;
75971;SDS011;64651;47.540;19.088;2023-10-31T08:14:45;16.52;;;9.57;;
75971;SDS011;64651;47.540;19.088;2023-10-31T08:19:48;16.12;;;8.55;;
75971;SDS011;64651;47.540;19.088;2023-10-31T08:24:50;16.77;;;10.63;;
75971;SDS011;64651;47.540;19.088;2023-10-31T08:29:52;16.62;;;8.25;;
75971;SDS011;64651;47.540;19.088;2023-10-31T08:34:54;14.27;;;8.02;;
75971;SDS011;64651;47.540;19.088;2023-10-31T08:39:58;13.48;;;7.10;;
75971;SDS011;64651;47.540;19.088;2023-10-31T08:45:00;11.88;;;6.90;;
75971;SDS011;64651;47.540;19.088;2023-10-31T08:50:02;13.30;;;6.70;;
75971;SDS011;64651;47.540;19.088;2023-10-31T08:55:05;12.10;;;6.65;;
75971;SDS011;64651;47.540;19.088;2023-10-31T09:00:08;13.35;;;6.97;;
75971;SDS011;64651;47.540;19.088;2023-10-31T09:05:10;12.43;;;6.70;;
75971;SDS011;64651;47.540;19.088;2023-10-31T09:10:12;11.45;;;6.30;;
75971;SDS011;64651;47.540;19.088;2023-10-31T09:15:15;11.37;;;6.57;;
75971;SDS011;64651;47.540;19.088;2023-10-31T09:20:20;11.73;;;5.57;;
75971;SDS011;64651;47.540;19.088;2023-10-31T09:25:22;11.23;;;5.93;;
75971;SDS011;64651;47.540;19.088;2023-10-31T09:30:25;10.88;;;5.45;;
75971;SDS011;64651;47.540;19.088;2023-10-31T09:35:27;12.10;;;5.32;;
75971;SDS011;64651;47.540;19.088;2023-10-31T09:40:30;12.70;;;5.83;;
75971;SDS011;64651;47.540;19.088;2023-10-31T09:45:32;10.10;;;5.20;;
75971;SDS011;64651;47.540;19.088;2023-10-31T09:50:34;10.25;;;4.85;;
75971;SDS011;64651;47.540;19.088;2023-10-31T09:55:38;11.95;;;5.03;;
75971;SDS011;64651;47.540;19.088;2023-10-31T10:00:40;9.93;;;4.43;;
75971;SDS011;64651;47.540;19.088;2023-10-31T10:05:43;10.53;;;4.40;;
75971;SDS011;64651;47.540;19.088;2023-10-31T10:10:47;9.55;;;4.30;;
75971;SDS011;64651;47.540;19.088;2023-10-31T10:15:51;11.75;;;4.25;;
75971;SDS011;64651;47.540;19.088;2023-10-31T10:20:57;9.32;;;4.28;;
75971;SDS011;64651;47.540;19.088;2023-10-31T10:26:01;10.13;;;4.00;;
75971;SDS011;64651;47.540;19.088;2023-10-31T10:31:04;15.83;;;4.37;;
75971;SDS011;64651;47.540;19.088;2023-10-31T10:36:09;8.40;;;3.83;;
75971;SDS011;64651;47.540;19.088;2023-10-31T10:41:12;8.77;;;4.00;;
75971;SDS011;64651;47.540;19.088;2023-10-31T10:46:20;8.55;;;3.78;;
75971;SDS011;64651;47.540;19.088;2023-10-31T10:51:29;8.73;;;4.15;;
75971;SDS011;64651;47.540;19.088;2023-10-31T10:56:41;10.80;;;4.13;;
75971;SDS011;64651;47.540;19.088;2023-10-31T11:01:48;9.25;;;3.97;;
75971;SDS011;64651;47.540;19.088;2023-10-31T11:06:51;7.60;;;3.78;;
75971;SDS011;64651;47.540;19.088;2023-10-31T11:11:54;9.18;;;4.05;;
75971;SDS011;64651;47.540;19.088;2023-10-31T11:16:58;8.73;;;4.47;;
75971;SDS011;64651;47.540;19.088;2023-10-31T11:22:07;10.70;;;5.57;;
75971;SDS011;64651;47.540;19.088;2023-10-31T11:27:09;10.73;;;5.75;;
75971;SDS011;64651;47.540;19.088;2023-10-31T11:32:12;10.32;;;5.45;;
75971;SDS011;64651;47.540;19.088;2023-10-31T11:37:22;9.57;;;5.05;;
75971;SDS011;64651;47.540;19.088;2023-10-31T11:42:29;12.82;;;5.22;;
75971;SDS011;64651;47.540;19.088;2023-10-31T11:47:45;12.07;;;5.23;;
75971;SDS011;64651;47.540;19.088;2023-10-31T11:58:12;11.90;;;5.90;;
75971;SDS011;64651;47.540;19.088;2023-10-31T12:03:24;12.18;;;6.00;;
75971;SDS011;64651;47.540;19.088;2023-10-31T12:08:30;11.93;;;5.62;;
75971;SDS011;64651;47.540;19.088;2023-10-31T12:13:36;10.87;;;4.93;;
75971;SDS011;64651;47.540;19.088;2023-10-31T12:18:39;15.43;;;5.87;;
75971;SDS011;64651;47.540;19.088;2023-10-31T12:23:42;15.52;;;6.43;;
75971;SDS011;64651;47.540;19.088;2023-10-31T12:28:44;13.00;;;6.03;;
75971;SDS011;64651;47.540;19.088;2023-10-31T12:33:46;11.93;;;5.43;;
75971;SDS011;64651;47.540;19.088;2023-10-31T12:38:48;9.07;;;4.83;;
75971;SDS011;64651;47.540;19.088;2023-10-31T12:43:51;9.15;;;4.40;;
75971;SDS011;64651;47.540;19.088;2023-10-31T12:48:55;13.13;;;4.45;;
75971;SDS011;64651;47.540;19.088;2023-10-31T12:54:00;12.00;;;5.18;;
75971;SDS011;64651;47.540;19.088;2023-10-31T12:59:02;10.38;;;5.25;;
75971;SDS011;64651;47.540;19.088;2023-10-31T13:04:05;11.40;;;5.97;;
75971;SDS011;64651;47.540;19.088;2023-10-31T13:09:08;12.63;;;6.43;;
75971;SDS011;64651;47.540;19.088;2023-10-31T13:14:14;13.27;;;6.28;;
75971;SDS011;64651;47.540;19.088;2023-10-31T13:19:16;12.50;;;6.80;;
75971;SDS011;64651;47.540;19.088;2023-10-31T13:24:19;12.37;;;6.57;;
75971;SDS011;64651;47.540;19.088;2023-10-31T13:29:21;16.03;;;7.57;;
75971;SDS011;64651;47.540;19.088;2023-10-31T13:34:27;16.65;;;6.20;;
75971;SDS011;64651;47.540;19.088;2023-10-31T13:39:33;12.45;;;6.60;;
75971;SDS011;64651;47.540;19.088;2023-10-31T13:44:36;12.63;;;5.95;;
75971;SDS011;64651;47.540;19.088;2023-10-31T13:49:38;12.90;;;5.53;;
75971;SDS011;64651;47.540;19.088;2023-10-31T13:54:40;11.97;;;5.60;;
75971;SDS011;64651;47.540;19.088;2023-10-31T13:59:43;6.37;;;2.35;;
75971;SDS011;64651;47.540;19.088;2023-10-31T14:04:45;6.65;;;1.55;;
75971;SDS011;64651;47.540;19.088;2023-10-31T14:09:47;5.20;;;1.52;;
75971;SDS011;64651;47.540;19.088;2023-10-31T14:14:51;4.50;;;1.60;;
75971;SDS011;64651;47.540;19.088;2023-10-31T14:19:53;5.23;;;1.70;;
75971;SDS011;64651;47.540;19.088;2023-10-31T14:24:55;6.75;;;1.92;;
75971;SDS011;64651;47.540;19.088;2023-10-31T14:29:59;5.93;;;1.80;;
75971;SDS011;64651;47.540;19.088;2023-10-31T14:35:09;6.68;;;2.00;;
75971;SDS011;64651;47.540;19.088;2023-10-31T14:40:11;6.35;;;1.80;;
75971;SDS011;64651;47.540;19.088;2023-10-31T14:45:13;6.03;;;1.73;;
75971;SDS011;64651;47.540;19.088;2023-10-31T14:50:16;5.72;;;2.05;;
75971;SDS011;64651;47.540;19.088;2023-10-31T14:55:18;6.18;;;2.10;;
75971;SDS011;64651;47.540;19.088;2023-10-31T15:00:20;5.10;;;1.90;;
75971;SDS011;64651;47.540;19.088;2023-10-31T15:05:23;6.90;;;2.25;;
75971;SDS011;64651;47.540;19.088;2023-10-31T15:10:25;7.10;;;2.47;;
75971;SDS011;64651;47.540;19.088;2023-10-31T15:15:30;7.47;;;2.40;;
75971;SDS011;64651;47.540;19.088;2023-10-31T15:20:32;6.70;;;2.35;;
75971;SDS011;64651;47.540;19.088;2023-10-31T15:25:35;6.45;;;1.85;;
75971;SDS011;64651;47.540;19.088;2023-10-31T15:30:37;6.93;;;2.37;;
75971;SDS011;64651;47.540;19.088;2023-10-31T15:35:39;6.50;;;2.23;;
75971;SDS011;64651;47.540;19.088;2023-10-31T15:40:41;6.62;;;2.10;;
75971;SDS011;64651;47.540;19.088;2023-10-31T15:45:44;5.97;;;2.00;;
75971;SDS011;64651;47.540;19.088;2023-10-31T15:50:46;7.10;;;2.12;;
75971;SDS011;64651;47.540;19.088;2023-10-31T15:55:48;5.62;;;2.20;;
75971;SDS011;64651;47.540;19.088;2023-10-31T16:00:50;5.07;;;1.67;;
75971;SDS011;64651;47.540;19.088;2023-10-31T16:05:52;7.00;;;1.62;;
75971;SDS011;64651;47.540;19.088;2023-10-31T16:10:55;4.97;;;1.50;;
75971;SDS011;64651;47.540;19.088;2023-10-31T16:15:57;5.47;;;1.62;;
75971;SDS011;64651;47.540;19.088;2023-10-31T16:20:59;5.30;;;1.67;;
75971;SDS011;64651;47.540;19.088;2023-10-31T16:26:02;4.90;;;1.50;;
75971;SDS011;64651;47.540;19.088;2023-10-31T16:31:05;5.10;;;1.48;;
75971;SDS011;64651;47.540;19.088;2023-10-31T16:36:08;5.78;;;1.70;;
75971;SDS011;64651;47.540;19.088;2023-10-31T16:41:11;5.43;;;1.80;;
75971;SDS011;64651;47.540;19.088;2023-10-31T16:46:15;5.70;;;1.73;;
75971;SDS011;64651;47.540;19.088;2023-10-31T16:51:18;5.97;;;1.67;;
75971;SDS011;64651;47.540;19.088;2023-10-31T16:56:21;5.85;;;1.75;;
75971;SDS011;64651;47.540;19.088;2023-10-31T17:01:23;5.80;;;1.87;;
75971;SDS011;64651;47.540;19.088;2023-10-31T17:06:25;7.72;;;1.92;;
75971;SDS011;64651;47.540;19.088;2023-10-31T17:11:29;6.22;;;2.20;;
75971;SDS011;64651;47.540;19.088;2023-10-31T17:16:32;6.10;;;1.97;;
75971;SDS011;64651;47.540;19.088;2023-10-31T17:21:34;6.15;;;1.70;;
75971;SDS011;64651;47.540;19.088;2023-10-31T17:26:36;5.70;;;1.62;;
75971;SDS011;64651;47.540;19.088;2023-10-31T17:31:39;5.20;;;1.50;;
75971;SDS011;64651;47.540;19.088;2023-10-31T17:36:41;6.95;;;1.70;;
75971;SDS011;64651;47.540;19.088;2023-10-31T17:41:43;6.83;;;2.00;;
75971;SDS011;64651;47.540;19.088;2023-10-31T17:46:45;4.97;;;1.65;;
75971;SDS011;64651;47.540;19.088;2023-10-31T17:51:49;6.45;;;1.70;;
75971;SDS011;64651;47.540;19.088;2023-10-31T17:56:51;6.43;;;1.65;;
75971;SDS011;64651;47.540;19.088;2023-10-31T18:01:54;5.45;;;1.40;;
75971;SDS011;64651;47.540;19.088;2023-10-31T18:06:56;3.93;;;1.23;;
75971;SDS011;64651;47.540;19.088;2023-10-31T18:11:58;7.20;;;1.30;;
75971;SDS011;64651;47.540;19.088;2023-10-31T18:17:01;4.57;;;1.30;;
75971;SDS011;64651;47.540;19.088;2023-10-31T18:22:03;4.45;;;1.10;;
75971;SDS011;64651;47.540;19.088;2023-10-31T18:27:05;5.37;;;1.40;;
75971;SDS011;64651;47.540;19.088;2023-10-31T18:32:09;6.13;;;1.33;;
75971;SDS011;64651;47.540;19.088;2023-10-31T18:37:11;5.35;;;1.40;;
75971;SDS011;64651;47.540;19.088;2023-10-31T18:42:13;4.45;;;1.20;;
75971;SDS011;64651;47.540;19.088;2023-10-31T18:47:16;4.68;;;1.30;;
75971;SDS011;64651;47.540;19.088;2023-10-31T18:52:18;4.55;;;1.37;;
75971;SDS011;64651;47.540;19.088;2023-10-31T18:57:21;5.13;;;1.30;;
75971;SDS011;64651;47.540;19.088;2023-10-31T19:02:24;5.20;;;1.50;;
75971;SDS011;64651;47.540;19.088;2023-10-31T19:07:26;5.60;;;1.40;;
75971;SDS011;64651;47.540;19.088;2023-10-31T19:12:28;4.30;;;1.10;;
75971;SDS011;64651;47.540;19.088;2023-10-31T19:17:31;5.37;;;1.30;;
75971;SDS011;64651;47.540;19.088;2023-10-31T19:22:34;4.70;;;1.37;;
75971;SDS011;64651;47.540;19.088;2023-10-31T19:27:36;5.10;;;1.27;;
75971;SDS011;64651;47.540;19.088;2023-10-31T19:32:38;5.37;;;1.52;;
75971;SDS011;64651;47.540;19.088;2023-10-31T19:37:41;5.68;;;1.30;;
75971;SDS011;64651;47.540;19.088;2023-10-31T19:42:46;5.57;;;1.58;;
75971;SDS011;64651;47.540;19.088;2023-10-31T19:47:48;5.80;;;1.33;;
75971;SDS011;64651;47.540;19.088;2023-10-31T19:52:50;5.47;;;1.20;;
75971;SDS011;64651;47.540;19.088;2023-10-31T19:57:59;4.93;;;1.50;;
75971;SDS011;64651;47.540;19.088;2023-10-31T20:03:10;6.22;;;1.40;;
75971;SDS011;64651;47.540;19.088;2023-10-31T20:08:14;4.28;;;1.00;;
75971;SDS011;64651;47.540;19.088;2023-10-31T20:13:18;5.00;;;1.10;;
75971;SDS011;64651;47.540;19.088;2023-10-31T20:18:21;4.93;;;1.15;;
75971;SDS011;64651;47.540;19.088;2023-10-31T20:23:33;7.05;;;1.23;;
75971;SDS011;64651;47.540;19.088;2023-10-31T20:28:41;5.30;;;1.20;;
75971;SDS011;64651;47.540;19.088;2023-10-31T20:33:44;4.45;;;1.10;;
75971;SDS011;64651;47.540;19.088;2023-10-31T20:38:50;4.93;;;1.17;;
75971;SDS011;64651;47.540;19.088;2023-10-31T20:43:52;6.80;;;1.27;;
75971;SDS011;64651;47.540;19.088;2023-10-31T20:48:54;5.43;;;1.10;;
75971;SDS011;64651;47.540;19.088;2023-10-31T20:53:57;4.78;;;1.20;;
75971;SDS011;64651;47.540;19.088;2023-10-31T20:58:59;6.00;;;1.33;;
75971;SDS011;64651;47.540;19.088;2023-10-31T21:04:02;4.80;;;1.07;;
75971;SDS011;64651;47.540;19.088;2023-10-31T21:09:05;5.35;;;1.40;;
75971;SDS011;64651;47.540;19.088;2023-10-31T21:14:08;5.15;;;1.12;;
75971;SDS011;64651;47.540;19.088;2023-10-31T21:19:10;4.80;;;1.30;;
75971;SDS011;64651;47.540;19.088;2023-10-31T21:24:15;4.50;;;1.20;;
75971;SDS011;64651;47.540;19.088;2023-10-31T21:29:20;4.10;;;1.10;;
75971;SDS011;64651;47.540;19.088;2023-10-31T21:34:22;4.47;;;1.30;;
75971;SDS011;64651;47.540;19.088;2023-10-31T21:39:24;4.35;;;1.20;;
75971;SDS011;64651;47.540;19.088;2023-10-31T21:44:27;6.03;;;1.37;;
75971;SDS011;64651;47.540;19.088;2023-10-31T21:49:29;5.20;;;1.48;;
75971;SDS011;64651;47.540;19.088;2023-10-31T21:54:31;4.77;;;1.37;;
75971;SDS011;64651;47.540;19.088;2023-10-31T21:59:34;4.85;;;1.30;;
75971;SDS011;64651;47.540;19.088;2023-10-31T22:04:37;5.00;;;1.35;;
75971;SDS011;64651;47.540;19.088;2023-10-31T22:09:39;4.05;;;1.30;;
75971;SDS011;64651;47.540;19.088;2023-10-31T22:14:43;4.95;;;1.30;;
75971;SDS011;64651;47.540;19.088;2023-10-31T22:31:21;6.62;;;1.20;;
75971;SDS011;64651;47.540;19.088;2023-10-31T22:36:24;4.65;;;1.30;;
75971;SDS011;64651;47.540;19.088;2023-10-31T22:41:26;5.60;;;1.50;;
75971;SDS011;64651;47.540;19.088;2023-10-31T22:46:29;5.77;;;1.70;;
75971;SDS011;64651;47.540;19.088;2023-10-31T22:51:31;4.70;;;1.55;;
75971;SDS011;64651;47.540;19.088;2023-10-31T22:56:33;5.97;;;1.67;;
75971;SDS011;64651;47.540;19.088;2023-10-31T23:01:36;6.85;;;1.65;;
75971;SDS011;64651;47.540;19.088;2023-10-31T23:06:38;5.95;;;1.65;;
75971;SDS011;64651;47.540;19.088;2023-10-31T23:11:42;5.53;;;1.43;;
75971;SDS011;64651;47.540;19.088;2023-10-31T23:16:49;6.82;;;2.22;;
75971;SDS011;64651;47.540;19.088;2023-10-31T23:21:53;5.87;;;1.67;;
75971;SDS011;64651;47.540;19.088;2023-10-31T23:26:56;5.25;;;1.75;;
75971;SDS011;64651;47.540;19.088;2023-10-31T23:31:58;5.80;;;1.77;;
75971;SDS011;64651;47.540;19.088;2023-10-31T23:37:02;5.73;;;1.90;;
75971;SDS011;64651;47.540;19.088;2023-10-31T23:42:04;5.43;;;1.60;;
75971;SDS011;64651;47.540;19.088;2023-10-31T23:47:07;6.22;;;1.90;;
75971;SDS011;64651;47.540;19.088;2023-10-31T23:52:10;5.97;;;2.28;;
75971;SDS011;64651;47.540;19.088;2023-10-31T23:57:12;5.25;;;1.40;;
